Time;durP1;ratioP1;P1;durP2;ratioP2;P2;SDS_P1;SDS_P2;PMS_P1;PMS_P2;Temp;Humidity;BMP_temperature;BMP_pressure;BME280_temperature;BME280_humidity;BME280_pressure;Samples;Min_cycle;Max_cycle;Signal;HPM_P1;HPM_P2
2023/12/21 00:02:35;;;;;;;4.77;2.23;;;;;;;6.60;100.00;99372.09;12188917;19;20453;-85
2023/12/21 00:06:36;;;;;;;4.20;2.08;;;;;;;6.62;100.00;99364.50;12207288;19;20270;-84
2023/12/21 00:10:38;;;;;;;4.55;2.10;;;;;;;6.69;100.00;99354.25;12200701;19;20011;-85
2023/12/21 00:14:41;;;;;;;5.85;2.33;;;;;;;6.68;100.00;99357.25;12178233;19;20030;-84
2023/12/21 00:18:42;;;;;;;4.05;1.70;;;;;;;6.60;100.00;99351.06;12201274;19;20019;-84
2023/12/21 00:22:44;;;;;;;6.65;1.98;;;;;;;6.59;100.00;99346.63;12179104;19;20019;-85
2023/12/21 00:26:46;;;;;;;5.07;1.85;;;;;;;6.54;100.00;99335.59;12204571;19;20027;-83
2023/12/21 00:30:48;;;;;;;7.90;2.72;;;;;;;6.51;100.00;99310.56;12213824;19;20003;-83
2023/12/21 00:34:50;;;;;;;4.32;1.90;;;;;;;6.46;100.00;99296.75;12224615;19;20025;-82
2023/12/21 00:38:52;;;;;;;3.85;1.98;;;;;;;6.44;100.00;99286.03;12244588;19;20007;-85
2023/12/21 00:42:53;;;;;;;7.53;2.22;;;;;;;6.45;100.00;99268.53;12231503;19;20038;-83
2023/12/21 00:46:55;;;;;;;4.32;1.63;;;;;;;6.43;100.00;99256.19;12211274;19;20017;-81
2023/12/21 00:50:57;;;;;;;3.30;1.75;;;;;;;6.43;100.00;99257.00;12236606;19;20352;-83
2023/12/21 00:55:02;;;;;;;5.20;1.80;;;;;;;6.46;100.00;99251.06;12246627;19;20049;-80
2023/12/21 00:59:05;;;;;;;3.95;1.75;;;;;;;6.45;100.00;99252.13;12217697;19;20083;-82
2023/12/21 01:03:06;;;;;;;2.70;1.70;;;;;;;6.42;100.00;99249.84;12222511;19;21979;-84
2023/12/21 01:07:08;;;;;;;5.03;1.67;;;;;;;6.43;100.00;99254.28;12220735;19;20367;-81
2023/12/21 01:11:11;;;;;;;6.03;1.95;;;;;;;6.42;100.00;99252.59;12216688;19;20031;-84
2023/12/21 01:15:12;;;;;;;6.00;2.28;;;;;;;6.47;100.00;99246.41;12231674;19;20014;-83
2023/12/21 01:19:14;;;;;;;4.10;1.92;;;;;;;6.44;100.00;99233.22;12226877;19;20007;-80
2023/12/21 01:23:16;;;;;;;5.63;2.37;;;;;;;6.43;100.00;99217.88;12202084;19;20017;-84
2023/12/21 01:27:20;;;;;;;3.90;1.75;;;;;;;6.40;100.00;99219.19;12200273;19;20026;-85
2023/12/21 01:31:33;;;;;;;5.57;1.95;;;;;;;6.43;100.00;99207.75;12224448;19;20010;-86
2023/12/21 01:35:35;;;;;;;4.95;1.98;;;;;;;6.47;100.00;99202.63;12196597;19;20042;-84
2023/12/21 01:39:36;;;;;;;3.15;1.70;;;;;;;6.44;100.00;99195.72;12222987;19;20014;-85
2023/12/21 01:43:38;;;;;;;4.45;1.42;;;;;;;6.43;100.00;99185.03;12211720;19;20009;-86
2023/12/21 01:47:41;;;;;;;2.83;1.80;;;;;;;6.44;100.00;99189.41;12197565;19;20826;-85
2023/12/21 01:51:44;;;;;;;2.95;1.48;;;;;;;6.47;100.00;99194.41;12215512;19;21323;-84
2023/12/21 01:55:46;;;;;;;3.67;1.30;;;;;;;6.55;100.00;99199.53;12205221;19;20017;-83
2023/12/21 01:59:48;;;;;;;3.42;1.45;;;;;;;6.59;100.00;99178.81;12210624;19;20082;-82
2023/12/21 02:03:50;;;;;;;2.58;1.23;;;;;;;6.61;100.00;99185.72;12214047;19;20506;-84
2023/12/21 02:07:52;;;;;;;3.92;0.95;;;;;;;6.67;100.00;99164.78;12190650;19;20010;-84
2023/12/21 02:11:54;;;;;;;3.83;1.30;;;;;;;6.71;100.00;99162.38;12214480;19;20546;-85
2023/12/21 02:15:59;;;;;;;2.50;1.10;;;;;;;6.76;100.00;99174.28;12211356;19;20023;-85
2023/12/21 02:20:02;;;;;;;1.73;1.13;;;;;;;6.80;100.00;99158.19;12190641;19;20015;-86
2023/12/21 02:24:12;;;;;;;2.90;1.83;;;;;;;6.80;100.00;99153.53;12215298;19;20047;-82
2023/12/21 02:28:14;;;;;;;5.13;1.27;;;;;;;6.79;100.00;99140.09;12218760;19;20217;-83
2023/12/21 02:32:16;;;;;;;5.53;0.95;;;;;;;6.84;100.00;99112.81;12196480;19;20010;-85
2023/12/21 02:36:18;;;;;;;1.00;0.88;;;;;;;6.85;100.00;99101.63;12211845;19;20031;-84
2023/12/21 02:40:20;;;;;;;1.88;1.13;;;;;;;6.96;100.00;99101.81;12214657;19;20014;-82
2023/12/21 02:44:22;;;;;;;3.13;1.08;;;;;;;6.99;100.00;99095.84;12190685;19;20011;-84
2023/12/21 02:48:24;;;;;;;4.70;1.13;;;;;;;6.96;100.00;99088.13;12210149;19;20013;-81
2023/12/21 02:52:26;;;;;;;;;;;;;;;6.98;100.00;99086.81;12213291;19;20014;-86
2023/12/21 02:56:28;;;;;;;2.85;1.08;;;;;;;7.04;100.00;99076.78;12193836;19;20314;-85
2023/12/21 03:00:30;;;;;;;2.28;0.95;;;;;;;7.04;100.00;99091.31;12217348;19;20390;-86
2023/12/21 03:05:16;;;;;;;1.67;0.75;;;;;;;7.08;100.00;99076.06;12255124;19;20034;-83
2023/12/21 03:09:18;;;;;;;2.72;0.95;;;;;;;7.07;100.00;99068.06;12172682;19;2004276;-83
2023/12/21 03:13:19;;;;;;;0.70;0.63;;;;;;;7.16;100.00;99069.34;12266623;19;20024;-83
2023/12/21 03:17:21;;;;;;;3.97;1.00;;;;;;;7.17;100.00;99064.69;12235801;19;19994;-84
2023/12/21 03:21:23;;;;;;;1.88;0.90;;;;;;;7.14;100.00;99076.13;12242377;19;20015;-81
2023/12/21 03:25:25;;;;;;;1.07;0.70;;;;;;;7.18;100.00;99058.97;12244686;19;20045;-83
2023/12/21 03:29:27;;;;;;;1.70;0.60;;;;;;;7.21;100.00;99046.69;12220929;19;20021;-83
2023/12/21 03:33:29;;;;;;;1.63;0.70;;;;;;;7.24;100.00;99027.03;12226866;19;20007;-84
2023/12/21 03:37:31;;;;;;;1.55;0.90;;;;;;;7.27;100.00;99015.56;12214417;19;20043;-86
2023/12/21 03:41:33;;;;;;;1.73;0.90;;;;;;;7.31;100.00;99005.75;12190239;19;20793;-85
2023/12/21 03:45:40;;;;;;;2.35;0.70;;;;;;;7.35;100.00;99000.59;12213612;19;20012;-85
2023/12/21 03:49:43;;;;;;;1.23;0.60;;;;;;;7.35;100.00;99001.47;12206995;19;20023;-85
2023/12/21 03:53:45;;;;;;;1.90;0.82;;;;;;;7.32;100.00;98999.22;12181979;19;20388;-87
2023/12/21 03:57:47;;;;;;;0.90;0.40;;;;;;;7.34;100.00;98979.75;12202026;19;20010;-86
2023/12/21 04:01:48;;;;;;;0.70;0.43;;;;;;;7.41;100.00;98973.06;12184605;19;20014;-86
2023/12/21 04:05:50;;;;;;;0.73;0.50;;;;;;;7.43;100.00;98962.66;12207782;19;20006;-88
2023/12/21 04:09:52;;;;;;;0.90;0.60;;;;;;;7.50;100.00;98970.72;12209451;19;20006;-87
2023/12/21 04:13:54;;;;;;;1.10;0.57;;;;;;;7.57;100.00;98967.81;12182932;19;20125;-83
2023/12/21 04:17:56;;;;;;;1.05;0.45;;;;;;;7.53;100.00;98960.09;12202277;19;20010;-83
2023/12/21 04:21:58;;;;;;;1.57;0.60;;;;;;;7.54;100.00;98963.66;12211633;19;20014;-83
2023/12/21 04:26:00;;;;;;;1.85;0.55;;;;;;;7.57;100.00;98949.44;12191634;19;20027;-86
2023/12/21 04:30:03;;;;;;;0.93;0.40;;;;;;;7.56;100.00;98936.81;12200634;19;20014;-85
2023/12/21 04:34:05;;;;;;;4.25;0.57;;;;;;;7.53;100.00;98921.69;12203216;19;20022;-83
2023/12/21 04:38:07;;;;;;;0.70;0.50;;;;;;;7.50;100.00;98919.47;12180747;19;20007;-84
2023/12/21 04:42:09;;;;;;;1.65;0.70;;;;;;;7.51;100.00;98917.53;12202348;19;20045;-84
2023/12/21 04:46:12;;;;;;;2.67;0.68;;;;;;;7.52;100.00;98908.22;12204467;19;20011;-85
2023/12/21 04:50:14;;;;;;;0.68;0.50;;;;;;;7.54;100.00;98903.34;12184632;19;20055;-83
2023/12/21 04:54:16;;;;;;;0.57;0.40;;;;;;;7.54;100.00;98895.09;12201200;19;20438;-82
2023/12/21 04:58:18;;;;;;;2.67;0.82;;;;;;;7.54;100.00;98884.16;12204043;19;20014;-85
2023/12/21 05:02:20;;;;;;;1.05;0.73;;;;;;;7.44;100.00;98878.53;12182036;19;20014;-81
2023/12/21 05:06:22;;;;;;;1.65;0.73;;;;;;;7.48;100.00;98865.97;12205459;19;20034;-84
2023/12/21 05:10:24;;;;;;;1.05;0.60;;;;;;;7.42;100.00;98869.72;12217388;19;20010;-81
2023/12/21 05:14:26;;;;;;;1.00;0.50;;;;;;;7.41;100.00;98863.41;12220957;19;20014;-80
2023/12/21 05:18:27;;;;;;;1.08;0.65;;;;;;;7.39;100.00;98854.59;12255476;19;20018;-84
2023/12/21 05:22:29;;;;;;;1.10;0.70;;;;;;;7.36;100.00;98859.78;12220797;19;20014;-85
2023/12/21 05:26:32;;;;;;;2.40;0.90;;;;;;;7.33;100.00;98843.84;12199093;19;20021;-84
2023/12/21 05:30:34;;;;;;;1.58;0.80;;;;;;;7.24;100.00;98847.00;12213526;19;20014;-83
2023/12/21 05:34:36;;;;;;;0.55;0.52;;;;;;;7.26;100.00;98839.38;12210646;19;20011;-84
2023/12/21 05:38:43;;;;;;;1.33;0.60;;;;;;;7.30;100.00;98835.03;12179223;19;19998;-83
2023/12/21 05:42:45;;;;;;;6.15;0.77;;;;;;;7.28;100.00;98818.00;12198158;19;20611;-85
2023/12/21 05:46:48;;;;;;;2.43;0.70;;;;;;;7.30;100.00;98813.09;12188157;19;20022;-82
2023/12/21 05:50:50;;;;;;;1.40;0.70;;;;;;;7.27;100.00;98807.31;12210033;19;20244;-83
2023/12/21 05:54:51;;;;;;;2.43;0.80;;;;;;;7.33;100.00;98800.81;12206926;19;20466;-85
2023/12/21 05:58:53;;;;;;;2.00;0.80;;;;;;;7.33;100.00;98789.03;12185893;19;20027;-83
2023/12/21 06:02:56;;;;;;;0.85;0.70;;;;;;;7.30;100.00;98769.25;12205891;19;20018;-82
2023/12/21 06:07:00;;;;;;;0.43;0.40;;;;;;;7.35;100.00;98764.91;12188221;19;20019;-84
2023/12/21 06:11:02;;;;;;;0.70;0.60;;;;;;;7.34;100.00;98768.75;12195571;19;20006;-83
2023/12/21 06:15:05;;;;;;;4.18;0.90;;;;;;;7.36;100.00;98756.44;12214642;19;20017;-83
2023/12/21 06:19:10;;;;;;;3.28;0.57;;;;;;;7.40;100.00;98756.75;12235830;19;20009;-83
2023/12/21 06:23:12;;;;;;;0.88;0.60;;;;;;;7.46;100.00;98751.09;12218050;19;20065;-84
2023/12/21 06:27:14;;;;;;;0.95;0.57;;;;;;;7.48;100.00;98732.47;12213640;19;20077;-81
2023/12/21 06:31:17;;;;;;;;;;;;;;;7.54;100.00;98731.44;12214003;19;20069;-83
2023/12/21 06:35:19;;;;;;;1.20;0.50;;;;;;;7.58;100.00;98726.28;12208184;19;19918;-85
2023/12/21 06:39:20;;;;;;;1.08;0.50;;;;;;;7.57;100.00;98713.66;12212897;19;20010;-86
2023/12/21 06:43:23;;;;;;;0.50;0.40;;;;;;;7.64;100.00;98717.03;12210203;19;20110;-84
2023/12/21 06:47:25;;;;;;;0.85;0.40;;;;;;;7.76;100.00;98716.88;12183007;19;20011;-87
2023/12/21 06:51:28;;;;;;;1.60;0.60;;;;;;;7.76;100.00;98698.53;12204176;19;20481;-87
2023/12/21 06:55:29;;;;;;;0.63;0.50;;;;;;;7.80;100.00;98706.25;12210054;19;20018;-87
2023/12/21 06:59:31;;;;;;;2.03;0.50;;;;;;;7.83;100.00;98702.97;12192534;19;20010;-83
2023/12/21 07:03:33;;;;;;;1.35;0.75;;;;;;;7.93;100.00;98697.56;12210018;19;20019;-85
2023/12/21 07:07:35;;;;;;;0.57;0.57;;;;;;;7.93;100.00;98689.34;12209407;19;20011;-86
2023/12/21 07:11:38;;;;;;;2.60;0.57;;;;;;;7.95;100.00;98681.69;12185003;19;20042;-86
2023/12/21 07:15:41;;;;;;;1.13;0.55;;;;;;;8.05;100.00;98692.75;12206672;19;20119;-81
2023/12/21 07:19:43;;;;;;;1.90;0.43;;;;;;;8.05;100.00;98684.53;12204575;19;20027;-86
2023/12/21 07:23:45;;;;;;;0.70;0.35;;;;;;;8.07;100.00;98689.75;12209787;19;20078;-83
2023/12/21 07:27:46;;;;;;;0.77;0.50;;;;;;;8.12;100.00;98696.13;12225905;19;20010;-83
2023/12/21 07:31:48;;;;;;;0.32;0.32;;;;;;;8.14;100.00;98699.41;12219872;19;20018;-85
2023/12/21 07:35:50;;;;;;;4.07;0.80;;;;;;;8.15;100.00;98692.84;12241368;19;20003;-82
2023/12/21 07:39:52;;;;;;;0.70;0.40;;;;;;;8.12;100.00;98678.81;12237160;19;20011;-85
2023/12/21 07:43:54;;;;;;;1.35;0.55;;;;;;;8.13;100.00;98667.59;12184207;19;20259;-84
2023/12/21 07:47:56;;;;;;;0.38;0.30;;;;;;;8.21;100.00;98669.03;12202099;19;20051;-86
2023/12/21 07:51:57;;;;;;;1.33;0.60;;;;;;;8.21;100.00;98658.06;12207066;19;20044;-84
2023/12/21 07:55:59;;;;;;;0.38;0.38;;;;;;;8.19;100.00;98641.03;12184517;19;20567;-84
2023/12/21 08:00:01;;;;;;;1.57;0.47;;;;;;;8.20;100.00;98648.97;12201137;19;20020;-86
2023/12/21 08:04:09;;;;;;;2.00;0.85;;;;;;;8.23;100.00;98648.44;12205669;19;20355;-84
2023/12/21 08:08:11;;;;;;;2.08;0.70;;;;;;;8.21;100.00;98641.59;12191325;19;20079;-84
2023/12/21 08:12:14;;;;;;;1.17;0.60;;;;;;;8.20;100.00;98640.75;12208687;19;20074;-87
2023/12/21 08:16:17;;;;;;;1.00;0.60;;;;;;;8.15;100.00;98627.00;12200550;19;20010;-85
2023/12/21 08:20:18;;;;;;;;;;;;;;;8.13;100.00;98596.25;12177601;19;20014;-85
2023/12/21 08:24:20;;;;;;;0.82;0.60;;;;;;;8.18;100.00;98584.50;12200995;19;20012;-85
2023/12/21 08:28:23;;;;;;;1.50;1.02;;;;;;;8.17;100.00;98588.31;12203126;19;20031;-88
2023/12/21 08:32:27;;;;;;;1.90;0.70;;;;;;;8.13;100.00;98589.94;12178068;19;20003;-86
2023/12/21 08:36:29;;;;;;;0.70;0.60;;;;;;;8.16;100.00;98583.91;12201313;19;20007;-83
2023/12/21 08:40:31;;;;;;;0.73;0.53;;;;;;;8.13;100.00;98590.75;12202752;19;20010;-85
2023/12/21 08:44:34;;;;;;;1.65;0.73;;;;;;;8.13;100.00;98576.22;12174518;19;20270;-86
2023/12/21 08:48:37;;;;;;;1.55;0.70;;;;;;;8.06;100.00;98550.91;12199816;19;20770;-85
2023/12/21 08:52:41;;;;;;;1.50;0.73;;;;;;;8.15;100.00;98552.06;12203021;19;20014;-84
2023/12/21 08:56:46;;;;;;;2.45;0.80;;;;;;;8.08;100.00;98555.03;12187114;19;20022;-84
2023/12/21 09:00:48;;;;;;;2.38;0.70;;;;;;;8.13;100.00;98546.03;12211573;19;20034;-85
2023/12/21 09:04:50;;;;;;;3.22;0.57;;;;;;;8.19;100.00;98536.75;12213640;19;20027;-84
2023/12/21 09:08:52;;;;;;;0.57;0.40;;;;;;;8.13;100.00;98533.13;12192673;19;20074;-84
2023/12/21 09:12:55;;;;;;;1.48;0.68;;;;;;;8.23;100.00;98519.47;12208477;19;20002;-85
2023/12/21 09:16:58;;;;;;;0.95;0.47;;;;;;;8.26;100.00;98511.81;12190359;19;20043;-85
2023/12/21 09:21:02;;;;;;;0.55;0.55;;;;;;;8.27;100.00;98481.34;12206919;19;20628;-85
2023/12/21 09:25:05;;;;;;;0.68;0.52;;;;;;;8.39;100.00;98462.78;12209298;19;20007;-86
2023/12/21 09:29:07;;;;;;;1.30;0.55;;;;;;;8.50;100.00;98466.38;12190075;19;20054;-85
2023/12/21 09:33:08;;;;;;;1.02;0.52;;;;;;;8.55;100.00;98449.91;12210246;19;20014;-82
2023/12/21 09:37:10;;;;;;;0.77;0.50;;;;;;;8.59;100.00;98447.44;12226257;19;20096;-84
2023/12/21 09:41:12;;;;;;;1.45;0.50;;;;;;;8.69;100.00;98400.81;12201880;19;20021;-83
2023/12/21 09:45:16;;;;;;;0.70;0.60;;;;;;;8.73;100.00;98390.09;12221916;19;20010;-84
2023/12/21 09:49:20;;;;;;;1.10;0.40;;;;;;;8.80;100.00;98371.41;12227854;19;20255;-83
2023/12/21 09:53:25;;;;;;;1.80;0.70;;;;;;;8.96;100.00;98370.34;12192050;19;20015;-85
2023/12/21 09:57:27;;;;;;;0.93;0.70;;;;;;;8.97;100.00;98350.00;12209684;19;20046;-83
2023/12/21 10:01:28;;;;;;;1.67;0.50;;;;;;;9.13;100.00;98340.66;12219584;19;20027;-84
2023/12/21 10:05:33;;;;;;;0.22;0.22;;;;;;;9.18;100.00;98331.56;12236162;19;20028;-80
2023/12/21 10:09:36;;;;;;;0.50;0.30;;;;;;;9.15;100.00;98320.31;12265473;19;19999;-80
2023/12/21 10:13:48;;;;;;;0.22;0.20;;;;;;;9.16;100.00;98328.31;12249666;19;20011;-83
2023/12/21 10:17:50;;;;;;;0.63;0.30;;;;;;;9.28;100.00;98312.34;12188484;19;20358;-84
2023/12/21 10:21:53;;;;;;;0.47;0.22;;;;;;;9.32;100.00;98315.34;12204749;19;20013;-86
2023/12/21 10:25:55;;;;;;;0.63;0.20;;;;;;;9.29;100.00;98300.22;12206222;19;20046;-84
2023/12/21 10:29:58;;;;;;;0.60;0.40;;;;;;;9.25;100.00;98312.03;12185332;19;20006;-84
2023/12/21 10:34:00;;;;;;;0.55;0.28;;;;;;;9.31;100.00;98297.19;12208241;19;20036;-84
2023/12/21 10:38:02;;;;;;;0.30;0.30;;;;;;;9.45;100.00;98290.00;12214973;19;20608;-84
2023/12/21 10:42:04;;;;;;;0.20;0.20;;;;;;;9.50;100.00;98275.44;12211786;19;20068;-82
2023/12/21 10:46:06;;;;;;;0.37;0.30;;;;;;;9.53;100.00;98272.13;12237667;19;20094;-81
2023/12/21 10:50:09;;;;;;;1.98;0.25;;;;;;;9.65;100.00;98285.56;12234586;19;20049;-81
2023/12/21 10:54:14;;;;;;;;;;;;;;;9.66;100.00;98271.50;12204223;19;20530;-85
2023/12/21 10:58:18;;;;;;;0.95;0.35;;;;;;;9.59;100.00;98263.56;12207860;19;19922;-84
2023/12/21 11:02:21;;;;;;;0.73;0.20;;;;;;;9.44;100.00;98243.56;12183568;19;20028;-82
2023/12/21 11:06:24;;;;;;;0.40;0.30;;;;;;;9.46;100.00;98249.59;12202129;19;20014;-82
2023/12/21 11:10:26;;;;;;;0.30;0.30;;;;;;;9.33;100.00;98237.28;12208650;19;20077;-86
2023/12/21 11:14:30;;;;;;;1.70;0.50;;;;;;;9.31;100.00;98220.22;12183571;19;20010;-85
2023/12/21 11:18:32;;;;;;;2.20;0.40;;;;;;;9.32;100.00;98217.22;12209402;19;20018;-83
2023/12/21 11:22:38;;;;;;;;;;;;;;;9.37;100.00;98219.13;12197898;19;19999;-85
2023/12/21 11:26:40;;;;;;;0.35;0.30;;;;;;;9.44;100.00;98203.16;12187119;19;20291;-83
2023/12/21 11:30:42;;;;;;;0.85;0.40;;;;;;;9.40;100.00;98169.09;12209210;19;20025;-86
2023/12/21 11:34:46;;;;;;;0.30;0.30;;;;;;;9.51;100.00;98175.34;12208044;19;20091;-82
2023/12/21 11:38:48;;;;;;;0.90;0.40;;;;;;;9.65;100.00;98156.28;12184685;19;20010;-85
2023/12/21 11:42:54;;;;;;;1.85;0.40;;;;;;;9.69;100.00;98138.09;12209919;19;20815;-84
2023/12/21 11:47:00;;;;;;;0.20;0.20;;;;;;;9.77;100.00;98126.50;12214450;19;20014;-84
2023/12/21 11:51:03;;;;;;;0.77;0.35;;;;;;;9.82;100.00;98123.72;12205175;19;20041;-85
2023/12/21 11:55:07;;;;;;;1.35;0.30;;;;;;;9.84;100.00;98116.00;12222805;19;20010;-81
2023/12/21 11:59:10;;;;;;;1.70;0.47;;;;;;;9.96;100.00;98130.19;12207684;19;20020;-83
2023/12/21 12:03:15;;;;;;;0.70;0.55;;;;;;;9.98;100.00;98125.25;12177727;19;20824;-85
2023/12/21 12:07:19;;;;;;;0.17;0.17;;;;;;;9.96;100.00;98118.38;12198134;19;20006;-85
2023/12/21 12:11:21;;;;;;;0.50;0.30;;;;;;;10.16;100.00;98109.16;12180816;19;20900;-84
2023/12/21 12:15:23;;;;;;;0.50;0.40;;;;;;;10.23;100.00;98109.63;12203536;19;20016;-83
2023/12/21 12:19:26;;;;;;;0.20;0.20;;;;;;;10.32;100.00;98098.84;12198363;19;20013;-81
2023/12/21 12:23:29;;;;;;;1.85;0.32;;;;;;;10.35;100.00;98082.59;12189409;19;20007;-85
2023/12/21 12:27:32;;;;;;;0.53;0.40;;;;;;;10.34;100.00;98089.19;12211192;19;20014;-82
2023/12/21 12:31:34;;;;;;;0.47;0.20;;;;;;;10.36;100.00;98069.63;12219738;19;21036;-82
2023/12/21 12:35:40;;;;;;;0.40;0.40;;;;;;;10.35;100.00;98060.56;12195339;19;20628;-84
2023/12/21 12:39:42;;;;;;;0.88;0.50;;;;;;;10.31;100.00;98048.47;12218004;19;20003;-86
2023/12/21 12:43:44;;;;;;;0.65;0.20;;;;;;;10.26;100.00;98053.97;12214878;19;20018;-81
2023/12/21 12:47:47;;;;;;;0.10;0.10;;;;;;;10.26;100.00;98046.59;12193443;19;20031;-82
2023/12/21 12:51:54;;;;;;;0.20;0.20;;;;;;;10.25;100.00;98033.09;12212146;19;20014;-82
2023/12/21 12:55:59;;;;;;;0.65;0.30;;;;;;;10.24;100.00;98045.22;12211435;19;21162;-82
2023/12/21 13:00:03;;;;;;;0.70;0.50;;;;;;;10.13;100.00;98035.41;12185586;19;20078;-79
2023/12/21 13:04:04;;;;;;;;;;;;;;;9.97;100.00;98027.31;12210017;19;20007;-82
2023/12/21 13:08:07;;;;;;;0.20;0.20;;;;;;;10.09;100.00;98020.59;12211046;19;19932;-81
2023/12/21 13:12:08;;;;;;;0.60;0.32;;;;;;;10.10;100.00;98009.28;12189684;19;20368;-81
2023/12/21 13:16:10;;;;;;;0.40;0.40;;;;;;;10.12;100.00;97998.00;12211245;19;20011;-83
2023/12/21 13:20:12;;;;;;;2.73;0.70;;;;;;;10.14;100.00;98007.63;12187911;19;20475;-82
2023/12/21 13:24:14;;;;;;;1.08;0.40;;;;;;;10.21;100.00;97991.56;12200702;19;20006;-81
2023/12/21 13:28:16;;;;;;;0.37;0.30;;;;;;;10.27;100.00;97995.13;12206458;19;20478;-83
2023/12/21 13:32:20;;;;;;;0.57;0.30;;;;;;;10.39;100.00;98008.47;12185101;19;20389;-83
2023/12/21 13:36:23;;;;;;;0.50;0.28;;;;;;;10.40;100.00;97982.56;12209979;19;20006;-84
2023/12/21 13:40:27;;;;;;;0.77;0.30;;;;;;;10.49;100.00;97983.56;12206959;19;20027;-83
2023/12/21 13:44:30;;;;;;;2.13;0.30;;;;;;;10.57;100.00;97980.16;12185135;19;20014;-80
2023/12/21 13:48:34;;;;;;;0.98;0.30;;;;;;;10.60;100.00;97970.50;12207914;19;20507;-80
2023/12/21 13:52:36;;;;;;;0.60;0.30;;;;;;;10.69;100.00;97980.56;12213155;19;20018;-82
2023/12/21 13:56:38;;;;;;;1.05;0.50;;;;;;;10.64;100.00;97957.75;12188803;19;20394;-82
2023/12/21 14:00:46;;;;;;;0.25;0.22;;;;;;;10.66;100.00;97969.31;12207721;19;20023;-81
2023/12/21 14:04:48;;;;;;;0.70;0.30;;;;;;;10.72;100.00;97949.66;12207242;19;20366;-79
2023/12/21 14:08:50;;;;;;;3.27;0.43;;;;;;;10.66;100.00;97952.78;12183260;19;20429;-82
2023/12/21 14:12:52;;;;;;;0.28;0.28;;;;;;;10.63;100.00;97969.91;12208504;19;20032;-82
2023/12/21 14:16:59;;;;;;;0.52;0.40;;;;;;;10.58;100.00;97965.25;12208516;19;20351;-82
2023/12/21 14:21:00;;;;;;;0.65;0.30;;;;;;;10.51;100.00;97953.00;12181140;19;20052;-82
2023/12/21 14:25:03;;;;;;;1.17;0.70;;;;;;;10.43;100.00;97941.50;12204214;19;20747;-83
2023/12/21 14:29:05;;;;;;;1.50;0.40;;;;;;;10.33;100.00;97922.38;12206085;19;20006;-81
2023/12/21 14:33:08;;;;;;;0.98;0.40;;;;;;;10.29;100.00;97921.28;12181003;19;20501;-81
2023/12/21 14:37:13;;;;;;;0.98;0.20;;;;;;;10.32;100.00;97914.38;12193866;19;20018;-80
2023/12/21 14:41:15;;;;;;;0.65;0.30;;;;;;;10.34;100.00;97918.47;12173226;19;20011;-82
2023/12/21 14:45:17;;;;;;;0.55;0.30;;;;;;;10.32;100.00;97919.88;12197047;19;20011;-81
2023/12/21 14:49:20;;;;;;;0.57;0.20;;;;;;;10.22;100.00;97927.13;12198304;19;20014;-82
2023/12/21 14:53:22;;;;;;;0.20;0.20;;;;;;;10.26;100.00;97927.34;12178395;19;20007;-83
2023/12/21 14:57:23;;;;;;;0.28;0.20;;;;;;;10.27;100.00;97916.09;12201764;19;20744;-80
2023/12/21 15:01:27;;;;;;;;;;;;;;;10.27;100.00;97918.03;12197890;19;20083;-81
2023/12/21 15:05:29;;;;;;;0.40;0.30;;;;;;;10.33;100.00;97905.84;12179317;19;19914;-81
2023/12/21 15:09:31;;;;;;;0.20;0.20;;;;;;;10.42;100.00;97903.25;12203015;19;20379;-81
2023/12/21 15:13:33;;;;;;;0.70;0.30;;;;;;;10.49;100.00;97912.78;12196123;19;20457;-81
2023/12/21 15:17:35;;;;;;;0.10;0.10;;;;;;;10.47;100.00;97915.03;12174316;19;20121;-81
2023/12/21 15:21:37;;;;;;;0.70;0.20;;;;;;;10.53;100.00;97917.69;12193488;19;20010;-82
2023/12/21 15:25:41;;;;;;;0.52;0.40;;;;;;;10.57;100.00;97905.81;12192158;19;20039;-83
2023/12/21 15:29:43;;;;;;;0.25;0.25;;;;;;;10.69;100.00;97906.19;12177807;19;20041;-83
2023/12/21 15:33:45;;;;;;;0.63;0.38;;;;;;;10.76;100.00;97900.28;12194205;19;20003;-81
2023/12/21 15:37:46;;;;;;;0.40;0.40;;;;;;;10.70;100.00;97898.72;12196424;19;20042;-81
2023/12/21 15:41:51;;;;;;;0.40;0.20;;;;;;;10.62;100.00;97891.97;12169592;19;20014;-80
2023/12/21 15:45:53;;;;;;;0.35;0.35;;;;;;;10.47;100.00;97892.19;12196989;19;20372;-83
2023/12/21 15:49:56;;;;;;;0.63;0.40;;;;;;;10.38;100.00;97892.03;12194582;19;20058;-80
2023/12/21 15:53:57;;;;;;;0.90;0.30;;;;;;;10.36;100.00;97885.97;12168060;19;20785;-81
2023/12/21 15:57:59;;;;;;;1.92;0.50;;;;;;;10.28;100.00;97889.38;12191196;19;20074;-83
2023/12/21 16:02:02;;;;;;;1.17;0.40;;;;;;;10.16;100.00;97886.22;12189325;19;21442;-79
2023/12/21 16:06:04;;;;;;;2.78;0.50;;;;;;;10.11;100.00;97876.06;12171677;19;20025;-83
2023/12/21 16:10:06;;;;;;;0.60;0.50;;;;;;;10.11;100.00;97900.84;12195122;19;20026;-79
2023/12/21 16:14:08;;;;;;;0.77;0.57;;;;;;;10.15;100.00;97898.34;12191537;19;20827;-80
2023/12/21 16:18:10;;;;;;;1.95;0.50;;;;;;;10.29;100.00;97882.75;12168660;19;20027;-81
2023/12/21 16:22:13;;;;;;;0.73;0.40;;;;;;;10.41;100.00;97902.44;12191477;19;20096;-80
2023/12/21 16:26:15;;;;;;;2.08;0.80;;;;;;;10.52;100.00;97902.28;12169790;19;20275;-81
2023/12/21 16:30:18;;;;;;;5.32;0.68;;;;;;;10.59;100.00;97906.34;12198047;19;20009;-80
2023/12/21 16:34:19;;;;;;;1.92;0.93;;;;;;;10.66;100.00;97903.22;12222459;19;20017;-81
2023/12/21 16:38:21;;;;;;;0.68;0.50;;;;;;;10.68;100.00;97900.97;12177858;19;20023;-81
2023/12/21 16:42:23;;;;;;;2.25;0.50;;;;;;;10.75;100.00;97895.91;12218949;19;20015;-79
2023/12/21 16:46:27;;;;;;;2.07;0.50;;;;;;;10.78;100.00;97889.81;12227341;19;20010;-79
2023/12/21 16:50:29;;;;;;;2.05;0.60;;;;;;;10.85;100.00;97895.75;12204071;19;20508;-78
2023/12/21 16:54:31;;;;;;;1.20;0.50;;;;;;;10.96;100.00;97910.19;12224203;19;20013;-77
2023/12/21 16:58:32;;;;;;;1.80;0.52;;;;;;;11.09;100.00;97908.63;12198353;19;20028;-78
2023/12/21 17:02:34;;;;;;;1.15;0.65;;;;;;;11.23;100.00;97920.53;12178462;19;20030;-77
2023/12/21 17:06:36;;;;;;;3.95;0.52;;;;;;;11.35;100.00;97929.16;12202232;19;20014;-81
2023/12/21 17:10:38;;;;;;;2.15;0.50;;;;;;;11.35;100.00;97942.94;12199611;19;20006;-81
2023/12/21 17:14:39;;;;;;;1.50;0.60;;;;;;;11.46;100.00;97932.56;12184882;19;20063;-80
2023/12/21 17:18:41;;;;;;;1.35;0.40;;;;;;;11.53;100.00;97938.50;12213738;19;20430;-81
2023/12/21 17:22:43;;;;;;;3.33;0.80;;;;;;;11.52;100.00;97919.50;12210264;19;20038;-81
2023/12/21 17:26:45;;;;;;;2.85;0.60;;;;;;;11.51;100.00;97921.47;12191486;19;20038;-80
2023/12/21 17:30:53;;;;;;;1.52;0.70;;;;;;;11.50;100.00;97925.31;12216029;19;20479;-82
2023/12/21 17:34:54;;;;;;;1.75;0.77;;;;;;;11.49;100.00;97928.41;12205162;19;20066;-79
2023/12/21 17:38:56;;;;;;;2.70;1.05;;;;;;;11.55;100.00;97939.03;12188748;19;19998;-80
2023/12/21 17:42:58;;;;;;;1.85;0.57;;;;;;;11.54;100.00;97944.84;12192110;19;20417;-79
2023/12/21 17:47:00;;;;;;;2.22;0.50;;;;;;;11.17;100.00;97946.53;12213269;19;20684;-81
2023/12/21 17:51:02;;;;;;;5.68;0.80;;;;;;;10.84;100.00;97954.72;12195221;19;20501;-86
2023/12/21 17:55:04;;;;;;;3.72;0.63;;;;;;;10.42;100.00;97942.63;12212647;19;20485;-85
2023/12/21 17:59:06;;;;;;;3.00;0.50;;;;;;;10.11;100.00;97949.56;12211562;19;20011;-84
2023/12/21 18:03:08;;;;;;;0.57;0.57;;;;;;;9.95;100.00;97960.72;12187495;19;20280;-82
2023/12/21 18:07:10;;;;;;;2.80;0.68;;;;;;;9.83;100.00;97960.31;12208279;19;20469;-84
2023/12/21 18:11:12;;;;;;;1.35;0.50;;;;;;;9.71;100.00;97957.13;12212704;19;20331;-81
2023/12/21 18:15:14;;;;;;;3.00;1.17;;;;;;;9.60;100.00;97950.88;12188139;19;20010;-82
2023/12/21 18:19:17;;;;;;;1.80;0.60;;;;;;;9.51;100.00;97931.44;12210103;19;20010;-81
2023/12/21 18:23:20;;;;;;;;;;;;;;;9.57;100.00;97921.22;12184983;19;20006;-82
2023/12/21 18:27:21;;;;;;;1.20;0.60;;;;;;;9.71;100.00;97948.88;12208697;19;19925;-82
2023/12/21 18:31:23;;;;;;;2.42;0.65;;;;;;;9.86;100.00;97956.16;12212689;19;20014;-83
2023/12/21 18:35:25;;;;;;;2.30;0.55;;;;;;;9.92;100.00;97975.06;12188711;19;20025;-83
2023/12/21 18:39:27;;;;;;;2.10;1.10;;;;;;;10.06;100.00;97963.41;12212186;19;20015;-82
2023/12/21 18:43:28;;;;;;;1.73;0.50;;;;;;;10.10;100.00;97961.69;12210271;19;20025;-81
2023/12/21 18:47:30;;;;;;;0.93;0.52;;;;;;;10.23;100.00;97975.59;12191496;19;20458;-84